createdAt,value
2017-07-27T00:01:17.883Z,20.70
2017-07-27T00:03:46.879Z,21.40
2017-07-27T00:06:15.765Z,21.27
2017-07-27T00:08:44.673Z,21.60
2017-07-27T00:11:13.546Z,21.00
2017-07-27T00:13:42.545Z,22.23
2017-07-27T00:16:11.453Z,24.30
2017-07-27T00:18:40.428Z,22.53
2017-07-27T00:21:09.422Z,22.90
2017-07-27T00:23:38.320Z,20.53
2017-07-27T00:26:07.194Z,19.40
2017-07-27T00:28:36.104Z,20.40
2017-07-27T00:31:05.088Z,20.07
2017-07-27T00:33:33.978Z,19.90
2017-07-27T00:36:02.972Z,19.97
2017-07-27T00:38:31.882Z,21.70
2017-07-27T00:41:00.770Z,19.10
2017-07-27T00:43:29.752Z,19.40
2017-07-27T00:45:58.652Z,20.67
2017-07-27T00:48:27.632Z,20.87
2017-07-27T00:50:56.625Z,20.30
2017-07-27T00:53:25.492Z,20.20
2017-07-27T00:55:54.509Z,17.90
2017-07-27T00:58:23.391Z,20.23
2017-07-27T01:00:52.264Z,19.90
2017-07-27T01:03:21.201Z,18.53
2017-07-27T01:05:50.097Z,19.50
2017-07-27T01:08:19.068Z,19.80
2017-07-27T01:10:47.940Z,18.97
2017-07-27T01:13:16.829Z,18.57
2017-07-27T01:15:45.696Z,20.47
2017-07-27T01:18:14.654Z,20.27
2017-07-27T01:20:43.726Z,19.70
2017-07-27T01:23:12.636Z,21.93
2017-07-27T01:25:41.610Z,22.80
2017-07-27T01:28:10.500Z,22.13
2017-07-27T01:30:39.375Z,21.90
2017-07-27T01:33:08.284Z,23.30
2017-07-27T01:35:37.174Z,22.57
2017-07-27T01:38:06.082Z,21.90
2017-07-27T01:40:35.060Z,21.43
2017-07-27T01:43:04.156Z,24.63
2017-07-27T01:45:33.046Z,22.53
2017-07-27T01:48:01.939Z,22.80
2017-07-27T01:50:30.833Z,22.40
2017-07-27T01:52:59.738Z,22.80
2017-07-27T01:55:28.629Z,21.50
2017-07-27T01:57:57.514Z,22.80
2017-07-27T02:00:26.392Z,21.40
2017-07-27T02:02:55.293Z,21.70
2017-07-27T02:05:24.209Z,22.30
2017-07-27T02:07:53.185Z,23.30
2017-07-27T02:10:22.057Z,22.33
2017-07-27T02:12:50.957Z,24.27
2017-07-27T02:15:20.168Z,21.93
2017-07-27T02:17:49.243Z,23.10
2017-07-27T02:20:18.140Z,22.67
2017-07-27T02:22:47.126Z,22.23
2017-07-27T02:25:16.008Z,20.33
2017-07-27T02:27:44.926Z,20.80
2017-07-27T02:30:13.816Z,22.53
2017-07-27T02:32:42.706Z,22.23
2017-07-27T02:35:11.621Z,22.70
2017-07-27T02:37:40.490Z,23.00
2017-07-27T02:40:09.356Z,23.73
2017-07-27T02:42:38.273Z,22.70
2017-07-27T02:45:07.165Z,21.37
2017-07-27T02:47:36.140Z,22.60
2017-07-27T02:50:05.025Z,22.83
2017-07-27T02:52:33.905Z,22.40
2017-07-27T02:55:02.779Z,20.80
2017-07-27T02:57:31.805Z,20.00
2017-07-27T03:00:00.674Z,21.50
2017-07-27T03:02:29.690Z,20.33
2017-07-27T03:04:58.683Z,21.10
2017-07-27T03:07:27.677Z,22.37
2017-07-27T03:09:56.545Z,22.33
2017-07-27T03:12:25.477Z,22.47
2017-07-27T03:14:54.349Z,22.50
2017-07-27T03:17:23.217Z,22.27
2017-07-27T03:19:52.104Z,21.77
2017-07-27T03:22:20.976Z,21.90
2017-07-27T03:24:50.017Z,23.50
2017-07-27T03:27:19.009Z,25.70
2017-07-27T03:29:47.880Z,24.23
2017-07-27T03:32:16.754Z,25.73
2017-07-27T03:34:45.784Z,31.27
2017-07-27T03:37:14.656Z,25.53
2017-07-27T03:39:43.531Z,25.20
2017-07-27T03:42:12.423Z,23.53
2017-07-27T03:44:41.289Z,22.67
2017-07-27T03:47:10.340Z,21.17
2017-07-27T03:49:39.223Z,20.70
2017-07-27T03:52:08.228Z,21.50
2017-07-27T03:54:37.221Z,18.53
2017-07-27T03:57:06.130Z,18.33
2017-07-27T03:59:35.066Z,20.07
2017-07-27T04:02:04.013Z,17.77
2017-07-27T04:04:32.988Z,19.87
2017-07-27T04:07:01.857Z,18.37
2017-07-27T04:09:31.381Z,17.30
2017-07-27T04:12:00.265Z,17.93
2017-07-27T04:14:29.267Z,17.40
2017-07-27T04:16:58.259Z,16.33
2017-07-27T04:19:27.253Z,16.33
2017-07-27T04:21:56.143Z,18.07
2017-07-27T04:24:25.044Z,15.77
2017-07-27T04:26:54.026Z,14.83
2017-07-27T04:29:22.896Z,15.83
2017-07-27T04:31:51.772Z,16.43
2017-07-27T04:34:20.712Z,16.93
2017-07-27T04:36:49.583Z,15.57
2017-07-27T04:39:18.483Z,15.70
2017-07-27T04:41:47.381Z,16.10
2017-07-27T04:44:16.366Z,15.10
2017-07-27T04:46:45.256Z,15.50
2017-07-27T04:49:14.250Z,15.00
2017-07-27T04:51:43.171Z,15.80
2017-07-27T04:54:12.133Z,16.13
2017-07-27T04:56:55.988Z,14.77
2017-07-27T04:59:24.969Z,15.33
2017-07-27T05:01:53.842Z,13.17
2017-07-27T05:04:22.854Z,12.10
2017-07-27T05:06:51.723Z,10.77
2017-07-27T05:09:20.598Z,10.40
2017-07-27T05:11:49.549Z,10.50
2017-07-27T05:14:18.627Z,10.33
2017-07-27T05:16:47.513Z,8.60
2017-07-27T05:19:16.505Z,9.00
2017-07-27T05:21:45.412Z,9.70
2017-07-27T05:24:14.299Z,7.93
2017-07-27T05:26:43.184Z,7.67
2017-07-27T05:29:12.171Z,8.10
2017-07-27T05:31:41.046Z,8.50
2017-07-27T05:34:09.996Z,8.90
2017-07-27T05:36:38.973Z,8.37
2017-07-27T05:39:07.852Z,7.20
2017-07-27T05:41:36.831Z,8.63
2017-07-27T05:44:05.688Z,7.03
2017-07-27T05:46:34.592Z,7.40
2017-07-27T05:49:03.481Z,8.10
2017-07-27T05:51:32.404Z,7.87
2017-07-27T05:54:01.386Z,7.77
2017-07-27T05:56:30.278Z,8.83
2017-07-27T05:58:59.272Z,6.53
2017-07-27T06:01:28.140Z,7.20
2017-07-27T06:03:57.018Z,7.10
2017-07-27T06:06:25.964Z,7.57
2017-07-27T06:08:54.844Z,7.87
2017-07-27T06:11:23.749Z,6.87
2017-07-27T06:13:52.741Z,7.27
2017-07-27T06:16:21.609Z,7.43
2017-07-27T06:18:50.499Z,6.77
2017-07-27T06:21:19.360Z,6.60
2017-07-27T06:23:48.300Z,7.07
2017-07-27T06:26:17.275Z,6.50
2017-07-27T06:28:46.137Z,6.10
2017-07-27T06:31:15.065Z,6.07
2017-07-27T06:33:43.953Z,6.70
2017-07-27T06:36:12.941Z,5.90
2017-07-27T06:38:42.241Z,6.10
2017-07-27T06:41:11.477Z,6.27
2017-07-27T06:43:40.361Z,6.10
2017-07-27T06:46:09.322Z,6.17
2017-07-27T06:48:38.224Z,6.13
2017-07-27T06:51:07.092Z,5.97
2017-07-27T06:53:36.010Z,17.07
2017-07-27T06:56:04.900Z,11.03
2017-07-27T06:58:34.802Z,6.63
2017-07-27T07:01:03.794Z,6.33
2017-07-27T07:03:32.788Z,5.97
2017-07-27T07:06:01.650Z,5.90
2017-07-27T07:08:30.517Z,5.83
2017-07-27T07:10:59.486Z,5.30
2017-07-27T07:13:28.456Z,4.83
2017-07-27T07:15:57.362Z,5.33
2017-07-27T07:18:26.440Z,5.67
2017-07-27T07:20:55.316Z,6.03
2017-07-27T07:23:24.181Z,5.57
2017-07-27T07:25:53.130Z,6.07
2017-07-27T07:28:22.013Z,5.33
2017-07-27T07:30:50.877Z,5.90
2017-07-27T07:33:19.889Z,5.47
2017-07-27T07:35:48.745Z,5.53
2017-07-27T07:38:17.607Z,5.07
2017-07-27T07:40:46.585Z,6.13
2017-07-27T07:43:15.461Z,6.00
2017-07-27T07:45:44.447Z,5.30
2017-07-27T07:48:13.364Z,5.40
2017-07-27T07:50:42.332Z,10.30
2017-07-27T07:53:11.197Z,5.60
2017-07-27T07:55:40.129Z,5.10
2017-07-27T07:58:09.021Z,5.30
2017-07-27T08:00:37.884Z,5.53
2017-07-27T08:03:06.806Z,4.80
2017-07-27T08:05:35.780Z,5.30
2017-07-27T08:08:04.648Z,5.60
2017-07-27T08:10:33.533Z,5.47
2017-07-27T08:13:02.496Z,5.07
2017-07-27T08:15:31.469Z,4.37
2017-07-27T08:18:00.542Z,4.83
2017-07-27T08:20:29.759Z,4.70
2017-07-27T08:22:58.643Z,5.37
2017-07-27T08:25:27.531Z,5.50
2017-07-27T08:27:56.421Z,5.20
2017-07-27T08:30:25.317Z,4.53
2017-07-27T08:32:54.204Z,4.80
2017-07-27T08:35:23.097Z,5.00
2017-07-27T08:37:52.079Z,4.87
2017-07-27T08:40:21.074Z,5.40
2017-07-27T08:42:50.066Z,5.90
2017-07-27T08:45:18.973Z,6.70
2017-07-27T08:47:47.966Z,5.80
2017-07-27T08:50:16.855Z,5.80
2017-07-27T08:52:45.834Z,5.60
2017-07-27T08:55:14.716Z,5.47
2017-07-27T08:57:43.580Z,6.70
2017-07-27T09:00:12.610Z,6.10
2017-07-27T09:02:41.492Z,7.90
2017-07-27T09:05:10.364Z,6.50
2017-07-27T09:07:39.228Z,6.10
2017-07-27T09:10:08.190Z,6.63
2017-07-27T09:12:37.168Z,6.53
2017-07-27T09:15:06.034Z,6.60
2017-07-27T09:17:35.052Z,6.37
2017-07-27T09:20:03.918Z,6.17
2017-07-27T09:22:33.166Z,6.40
2017-07-27T09:25:02.061Z,7.30
2017-07-27T09:27:31.025Z,6.70
2017-07-27T09:29:59.898Z,6.60
2017-07-27T09:32:28.813Z,7.13
2017-07-27T09:34:57.709Z,5.93
2017-07-27T09:37:26.588Z,7.30
2017-07-27T09:39:55.583Z,6.20
2017-07-27T09:42:24.574Z,7.60
2017-07-27T09:44:53.569Z,6.43
2017-07-27T09:47:22.456Z,6.90
2017-07-27T09:49:51.364Z,7.37
2017-07-27T09:52:20.228Z,5.50
2017-07-27T09:54:49.141Z,5.67
2017-07-27T09:57:23.797Z,5.23
2017-07-27T09:59:52.680Z,6.10
2017-07-27T10:02:21.641Z,5.63
2017-07-27T10:04:50.636Z,5.00
2017-07-27T10:07:19.538Z,5.03
2017-07-27T10:09:48.520Z,4.87
2017-07-27T10:12:17.426Z,5.00
2017-07-27T10:14:46.314Z,6.27
2017-07-27T10:17:16.229Z,6.20
2017-07-27T10:19:45.105Z,6.00
2017-07-27T10:22:13.989Z,5.03
2017-07-27T10:24:42.910Z,5.03
2017-07-27T10:27:11.778Z,5.50
2017-07-27T10:29:40.673Z,6.10
2017-07-27T10:32:09.574Z,5.60
2017-07-27T10:34:38.557Z,6.13
2017-07-27T10:37:07.441Z,5.47
2017-07-27T10:39:36.357Z,6.53
2017-07-27T10:42:05.240Z,5.10
2017-07-27T10:44:34.135Z,5.43
2017-07-27T10:47:03.001Z,5.50
2017-07-27T10:49:31.868Z,5.90
2017-07-27T10:52:00.805Z,5.00
2017-07-27T10:54:29.692Z,5.30
2017-07-27T10:56:58.552Z,5.03
2017-07-27T10:59:27.476Z,5.10
2017-07-27T11:01:56.369Z,4.70
2017-07-27T11:04:25.232Z,4.80
2017-07-27T11:06:54.364Z,4.33
2017-07-27T11:09:23.235Z,5.13
2017-07-27T11:11:52.101Z,4.53
2017-07-27T11:14:20.986Z,4.23
2017-07-27T11:16:49.922Z,5.00
2017-07-27T11:19:18.793Z,4.67
2017-07-27T11:21:47.791Z,4.87
2017-07-27T11:24:16.785Z,4.33
2017-07-27T11:26:45.657Z,4.27
2017-07-27T11:29:14.671Z,3.90
2017-07-27T11:31:43.664Z,3.90
2017-07-27T11:34:12.657Z,4.50
2017-07-27T11:36:41.651Z,4.53
2017-07-27T11:39:10.521Z,4.33
2017-07-27T11:41:39.385Z,3.37
2017-07-27T11:44:08.346Z,4.83
2017-07-27T11:46:37.221Z,4.47
2017-07-27T11:49:06.145Z,3.80
2017-07-27T11:51:35.441Z,3.70
2017-07-27T11:54:04.308Z,4.17
2017-07-27T11:56:33.202Z,3.70
2017-07-27T11:59:02.193Z,4.10
2017-07-27T12:01:31.071Z,3.80
2017-07-27T12:03:59.936Z,3.60
2017-07-27T12:06:28.816Z,4.90
2017-07-27T12:08:57.676Z,4.60
2017-07-27T12:11:26.545Z,4.50
2017-07-27T12:13:55.433Z,4.67
2017-07-27T12:16:24.298Z,4.87
2017-07-27T12:18:53.215Z,4.00
2017-07-27T12:21:22.301Z,4.00
2017-07-27T12:23:51.191Z,3.90
2017-07-27T12:26:20.049Z,3.47
2017-07-27T12:28:48.945Z,3.80
2017-07-27T12:31:18.097Z,3.80
2017-07-27T12:33:46.965Z,3.50
2017-07-27T12:36:15.853Z,3.50
2017-07-27T12:38:44.717Z,3.40
2017-07-27T12:41:13.577Z,3.60
2017-07-27T12:43:42.573Z,2.93
2017-07-27T12:46:11.532Z,3.00
2017-07-27T12:48:40.420Z,3.20
2017-07-27T12:51:09.506Z,2.70
2017-07-27T12:53:38.368Z,2.87
2017-07-27T12:56:07.228Z,2.50
2017-07-27T12:58:36.108Z,1.97
2017-07-27T13:01:04.976Z,2.27
2017-07-27T13:03:33.842Z,2.30
2017-07-27T13:06:02.748Z,2.00
2017-07-27T13:08:31.604Z,2.27
2017-07-27T13:11:00.541Z,1.80
2017-07-27T13:13:29.420Z,2.33
2017-07-27T13:15:58.285Z,2.50
2017-07-27T13:18:27.156Z,2.40
2017-07-27T13:20:56.111Z,2.60
2017-07-27T13:23:24.975Z,3.43
2017-07-27T13:25:53.980Z,2.67
2017-07-27T13:28:22.861Z,2.60
2017-07-27T13:30:51.723Z,3.33
2017-07-27T13:33:20.595Z,2.90
2017-07-27T13:35:49.573Z,3.10
2017-07-27T13:38:18.434Z,3.30
2017-07-27T13:40:47.299Z,2.83
2017-07-27T13:43:16.185Z,3.30
2017-07-27T13:45:45.045Z,3.77
2017-07-27T13:48:14.017Z,3.80
2017-07-27T13:50:42.992Z,4.00
2017-07-27T13:53:11.985Z,4.27
2017-07-27T13:55:40.978Z,3.93
2017-07-27T13:58:09.972Z,3.77
2017-07-27T14:00:38.964Z,3.83
2017-07-27T14:03:07.824Z,3.70
2017-07-27T14:05:36.704Z,3.53
2017-07-27T14:08:05.576Z,4.00
2017-07-27T14:10:34.553Z,3.67
2017-07-27T14:13:03.441Z,4.30
2017-07-27T14:15:32.304Z,4.70
2017-07-27T14:18:01.218Z,4.50
2017-07-27T14:20:30.211Z,4.27
2017-07-27T14:22:59.076Z,3.90
2017-07-27T14:25:27.936Z,4.03
2017-07-27T14:27:56.822Z,3.53
2017-07-27T14:30:25.780Z,3.63
2017-07-27T14:32:54.662Z,3.80
2017-07-27T14:35:23.582Z,2.77
2017-07-27T14:37:52.549Z,2.40
2017-07-27T14:40:21.445Z,2.77
2017-07-27T14:42:50.433Z,2.37
2017-07-27T14:45:19.312Z,2.17
2017-07-27T14:47:48.212Z,2.47
2017-07-27T14:50:17.101Z,2.80
2017-07-27T14:52:45.993Z,2.60
2017-07-27T14:55:14.885Z,2.60
2017-07-27T14:57:43.765Z,3.37
2017-07-27T15:00:12.664Z,3.10
2017-07-27T15:02:41.524Z,3.37
2017-07-27T15:05:10.405Z,3.87
2017-07-27T15:07:39.272Z,7.37
2017-07-27T15:10:08.132Z,4.50
2017-07-27T15:12:37.110Z,4.77
2017-07-27T15:15:06.105Z,4.30
2017-07-27T15:17:35.309Z,4.40
2017-07-27T15:20:04.191Z,5.07
2017-07-27T15:22:33.188Z,4.00
2017-07-27T15:25:02.088Z,4.63
2017-07-27T15:27:31.356Z,4.40
2017-07-27T15:30:00.236Z,4.17
2017-07-27T15:32:29.175Z,3.90
2017-07-27T15:34:58.166Z,7.87
2017-07-27T15:37:27.046Z,4.10
2017-07-27T15:39:55.917Z,3.83
2017-07-27T15:42:24.800Z,4.30
2017-07-27T15:44:53.663Z,4.27
2017-07-27T15:47:22.634Z,3.90
2017-07-27T15:49:51.617Z,3.80
2017-07-27T15:52:20.591Z,4.17
2017-07-27T15:54:49.479Z,4.10
2017-07-27T15:57:18.357Z,3.77
2017-07-27T15:59:47.279Z,3.77
2017-07-27T16:02:16.167Z,3.50
2017-07-27T16:04:45.147Z,3.40
2017-07-27T16:07:14.140Z,3.70
2017-07-27T16:09:43.005Z,3.40
2017-07-27T16:12:11.884Z,2.60
2017-07-27T16:14:40.822Z,2.70
2017-07-27T16:17:09.716Z,2.60
2017-07-27T16:19:38.600Z,2.57
2017-07-27T16:22:07.500Z,5.07
2017-07-27T16:24:36.389Z,2.90
2017-07-27T16:27:05.272Z,3.20
2017-07-27T16:29:34.492Z,3.40
2017-07-27T16:32:03.370Z,3.13
2017-07-27T16:34:32.361Z,3.33
2017-07-27T16:37:01.238Z,3.83
2017-07-27T16:39:30.097Z,3.30
2017-07-27T16:41:58.990Z,3.43
2017-07-27T16:44:27.857Z,4.40
2017-07-27T16:46:56.719Z,5.07
2017-07-27T16:49:25.604Z,4.20
2017-07-27T16:51:54.469Z,4.00
2017-07-27T16:54:23.339Z,4.67
2017-07-27T16:56:52.231Z,5.07
2017-07-27T16:59:21.301Z,5.47
2017-07-27T17:01:50.163Z,5.70
2017-07-27T17:04:19.080Z,5.17
2017-07-27T17:06:47.949Z,5.20
2017-07-27T17:09:16.933Z,5.23
2017-07-27T17:11:45.925Z,5.37
2017-07-27T17:14:14.788Z,5.13
2017-07-27T17:16:43.653Z,5.30
2017-07-27T17:19:12.788Z,4.97
2017-07-27T17:21:41.648Z,5.10
2017-07-27T17:24:10.513Z,4.73
2017-07-27T17:26:39.528Z,8.73
2017-07-27T17:29:08.398Z,6.53
2017-07-27T17:31:37.368Z,7.77
2017-07-27T17:34:06.344Z,5.00
2017-07-27T17:36:35.222Z,5.30
2017-07-27T17:39:04.087Z,4.03
2017-07-27T17:41:32.974Z,4.57
2017-07-27T17:44:01.842Z,5.00
2017-07-27T17:46:30.714Z,4.23
2017-07-27T17:48:59.603Z,4.17
2017-07-27T17:51:28.482Z,4.70
2017-07-27T17:53:57.359Z,3.97
2017-07-27T17:56:26.350Z,4.30
2017-07-27T17:58:55.256Z,4.47
2017-07-27T18:01:24.251Z,5.07
2017-07-27T18:03:53.331Z,4.57
2017-07-27T18:06:22.205Z,4.37
2017-07-27T18:08:51.073Z,4.47
2017-07-27T18:11:20.009Z,4.80
2017-07-27T18:13:48.885Z,4.70
2017-07-27T18:16:18.680Z,4.53
2017-07-27T18:18:47.588Z,5.50
2017-07-27T18:21:16.616Z,5.20
2017-07-27T18:23:45.554Z,4.80
2017-07-27T18:26:14.456Z,4.97
2017-07-27T18:28:44.189Z,5.03
2017-07-27T18:31:13.081Z,5.90
2017-07-27T18:33:41.988Z,7.60
2017-07-27T18:36:10.956Z,12.70
2017-07-27T18:38:39.830Z,11.57
2017-07-27T18:41:08.722Z,5.77
2017-07-27T18:43:37.908Z,5.90
2017-07-27T18:46:06.778Z,5.53
2017-07-27T18:48:35.659Z,7.30
2017-07-27T18:51:04.640Z,5.20
2017-07-27T18:53:33.518Z,5.77
2017-07-27T18:56:02.422Z,5.50
2017-07-27T18:58:31.379Z,6.23
2017-07-27T19:01:00.249Z,5.43
2017-07-27T19:03:29.141Z,5.40
2017-07-27T19:05:58.017Z,9.00
2017-07-27T19:08:26.957Z,29.93
2017-07-27T19:10:55.954Z,43.13
2017-07-27T19:13:24.927Z,18.17
2017-07-27T19:15:53.804Z,16.40
2017-07-27T19:18:22.729Z,11.90
2017-07-27T19:20:51.609Z,12.60
2017-07-27T19:23:20.509Z,12.30
2017-07-27T19:25:49.400Z,9.37
2017-07-27T19:28:18.290Z,10.10
2017-07-27T19:30:48.088Z,6.60
2017-07-27T19:33:16.989Z,7.60
2017-07-27T19:35:45.880Z,24.40
2017-07-27T19:38:14.770Z,12.30
2017-07-27T19:40:43.850Z,11.10
2017-07-27T19:43:12.743Z,9.97
2017-07-27T19:45:41.653Z,7.87
2017-07-27T19:48:10.542Z,8.90
2017-07-27T19:50:39.519Z,9.57
2017-07-27T19:53:08.434Z,9.50
2017-07-27T19:55:37.429Z,9.87
2017-07-27T19:58:06.307Z,9.20
2017-07-27T20:00:35.193Z,8.03
2017-07-27T20:03:04.186Z,9.60
2017-07-27T20:05:33.117Z,11.37
2017-07-27T20:08:01.995Z,10.67
2017-07-27T20:10:31.050Z,9.87
2017-07-27T20:12:59.925Z,10.57
2017-07-27T20:15:28.933Z,11.23
2017-07-27T20:17:57.825Z,11.77
2017-07-27T20:20:27.045Z,11.93
2017-07-27T20:22:56.017Z,9.20
2017-07-27T20:25:24.917Z,7.90
2017-07-27T20:27:53.808Z,9.77
2017-07-27T20:30:22.701Z,13.60
2017-07-27T20:32:51.697Z,13.80
2017-07-27T20:35:20.585Z,10.47
2017-07-27T20:37:49.453Z,11.20
2017-07-27T20:40:18.371Z,8.97
2017-07-27T20:42:47.238Z,8.00
2017-07-27T20:45:16.105Z,9.33
2017-07-27T20:47:44.994Z,9.90
2017-07-27T20:50:14.018Z,9.17
2017-07-27T20:52:42.890Z,8.83
2017-07-27T20:55:11.772Z,8.27
2017-07-27T20:57:40.728Z,8.27
2017-07-27T21:00:09.700Z,8.50
2017-07-27T21:02:38.689Z,8.43
2017-07-27T21:05:07.580Z,9.00
2017-07-27T21:07:36.492Z,9.40
2017-07-27T21:10:05.382Z,8.07
2017-07-27T21:12:35.514Z,9.80
2017-07-27T21:15:04.429Z,9.10
2017-07-27T21:17:33.395Z,9.10
2017-07-27T21:20:02.369Z,9.20
2017-07-27T21:22:31.252Z,9.30
2017-07-27T21:25:00.145Z,8.93
2017-07-27T21:27:29.033Z,9.40
2017-07-27T21:29:57.933Z,9.60
2017-07-27T21:32:26.936Z,8.20
2017-07-27T21:34:56.547Z,9.20
2017-07-27T21:37:25.437Z,9.07
2017-07-27T21:39:54.337Z,9.50
2017-07-27T21:42:23.233Z,10.50
2017-07-27T21:44:52.204Z,13.83
2017-07-27T21:47:21.092Z,34.67
2017-07-27T21:49:50.061Z,12.73
2017-07-27T21:52:18.968Z,10.63
2017-07-27T21:54:47.852Z,10.77
2017-07-27T21:57:16.736Z,10.03
2017-07-27T21:59:45.638Z,10.83
2017-07-27T22:02:14.616Z,9.87
2017-07-27T22:04:43.488Z,10.20
2017-07-27T22:07:12.415Z,9.87
2017-07-27T22:09:41.301Z,9.20
2017-07-27T22:12:10.168Z,8.77
2017-07-27T22:14:39.044Z,8.80
2017-07-27T22:17:07.934Z,8.60
2017-07-27T22:19:36.807Z,8.70
2017-07-27T22:22:05.753Z,8.93
2017-07-27T22:24:34.729Z,9.03
2017-07-27T22:27:03.605Z,9.27
2017-07-27T22:29:32.533Z,9.30
2017-07-27T22:32:01.616Z,9.30
2017-07-27T22:34:30.517Z,9.03
2017-07-27T22:36:59.377Z,9.47
2017-07-27T22:39:28.301Z,9.10
2017-07-27T22:41:57.177Z,9.10
2017-07-27T22:44:26.170Z,10.07
2017-07-27T22:46:55.076Z,9.90
2017-07-27T22:49:23.985Z,9.70
2017-07-27T22:51:52.864Z,9.50
2017-07-27T22:54:21.848Z,9.47
2017-07-27T22:56:50.737Z,8.80
2017-07-27T22:59:19.719Z,9.40
2017-07-27T23:01:48.632Z,9.17
2017-07-27T23:04:17.520Z,8.70
2017-07-27T23:06:46.396Z,8.87
2017-07-27T23:09:15.282Z,8.67
2017-07-27T23:11:44.156Z,9.60
2017-07-27T23:14:13.025Z,8.70
2017-07-27T23:16:41.918Z,9.57
2017-07-27T23:19:10.790Z,8.57
2017-07-27T23:21:39.761Z,9.60
2017-07-27T23:24:08.661Z,9.30
2017-07-27T23:26:37.529Z,9.90
2017-07-27T23:29:06.425Z,9.97
2017-07-27T23:31:35.309Z,8.50
2017-07-27T23:34:04.201Z,9.83
2017-07-27T23:36:33.101Z,10.40
2017-07-27T23:39:01.988Z,11.27
2017-07-27T23:41:30.879Z,9.90
2017-07-27T23:43:59.761Z,10.10
2017-07-27T23:46:28.748Z,8.67
2017-07-27T23:48:57.639Z,9.00
2017-07-27T23:51:26.540Z,9.77
2017-07-27T23:53:55.532Z,9.70
2017-07-27T23:56:29.878Z,9.20
2017-07-27T23:58:58.764Z,10.10
